Accueil
METAR-TAF:

METAR-TAF

Aéroports :

Aéroport de Tivat

Tivat, Monténégro

latitude: 42-24N, longitude: 018-44E, altitude: 5 m

Observation

Le bulletin a été fait il y a 20 minutes, à 03:00 UTC
Vent calme
Température 4°C
Humidité 75%
Pression 1025 hPa
Visibilité 10 km ou plus
Nuages épars à une hauteur de 5000 ft

METAR: LYTV 070300Z 00000KT 9999 SCT050 04/00 Q1025

Heure: 04:20 (03:20 UTC)

Prévision

Le bulletin a été fait il y a 4 heures et 20 minutes, à 23:00 UTC
Prévision valable du 07 à 00 UTC au 07 à 24 UTC
Vent 6 kt de nord/nord-est
Visibilité 10 km ou plus
pas de nuages en-dessous de 1500 mètres et pas de cumulonimbus.

TAF: LYTV 062300Z 0700/0724 02006KT CAVOK TX15/0713Z TN02/0706Z

Observations et prévisions météorologiques de plus de 4000 aéroports (messages METAR et TAF).

Les stations disponibles sont représentées par des disques jaunes et rouges sur la carte.

Passer la souris dessus pour voir le nom de la station.

Cliquer dessus pour voir les observations et prévisions météorologiques.

Pour changer de carte: cliquez sur les boutons verts avec une croix noire pour zoomer, sur le bouton vert avec un tiret pour effectuer un zoom arrière, ou sur les flèches vertes pour les cartes adjacentes.


METAR-TAF: